1894 Hurricane NOT_NAMED (1894284N11303)


IBTrACS version v04r00. Visit IBTrACS website for data access.
Please direct all questions to the IBTrACS Q and A forum

Storm track - Intensity - Wind Radii - Intensity Data - Source Data - All data

Summary Information

Storm ID 1894284N11303
Start Oct 11 00Z
Max Intensity 115 kt (Oct 16 12Z), 931 mb (Oct 16 18Z)
End Oct 20 18Z
ATCF IDs AL061894
Track status Best track data.

Storm track plot

Map of storm track

Intensity plots

Map of storm track

Radial wind information

No radial wind information for this storm


Position and Intensity Table

BASIN ISO_TIME_________ NATURE LAT LON WMO WIND WMO PRES USA WIND USA PRES MLC WIND MLC PRES
degrees north degrees east kts mb kts mb kts mb
NA 1894-10-11 00:00:00 TS 11.10 -57.03 35 35 30
NA 03:00:00 TS 11.28 -57.34 40 37
NA 06:00:00 TS 11.50 -57.67 45 45 45
NA 09:00:00 TS 11.78 -58.01 50 50
NA 12:00:00 TS 12.07 -58.37 55 55 55
NA 15:00:00 TS 12.30 -58.71 60 55
NA 18:00:00 TS 12.53 -59.03 65 65 55
NA 21:00:00 TS 12.78 -59.34 70 57
NA 1894-10-12 00:00:00 TS 13.03 -59.63 75 75 60
NA 03:00:00 TS 13.26 -59.93 80 60
NA 06:00:00 TS 13.50 -60.23 85 85 60
NA 09:00:00 TS 13.79 -60.53 85 62
NA 12:00:00 TS 14.07 -60.83 85 85 65
NA 15:00:00 TS 14.24 -61.13 85 65
NA 18:00:00 TS 14.40 -61.43 85 85 65
NA 21:00:00 TS 14.61 -61.77 85 65
NA 1894-10-13 00:00:00 TS 14.83 -62.10 85 85 65
NA 03:00:00 TS 15.02 -62.41 85 65
NA 06:00:00 TS 15.27 -62.70 85 85 65
NA 09:00:00 TS 15.67 -63.00 85 65
NA 12:00:00 TS 16.13 -63.30 85 85 65
NA 15:00:00 TS 16.58 -63.61 85 62
NA 18:00:00 TS 17.00 -63.90 85 85 60
NA 21:00:00 TS 17.38 -64.16 85 55
NA 1894-10-14 00:00:00 TS 17.73 -64.40 85 85 50
NA 03:00:00 TS 18.10 -64.64 85 47
NA 06:00:00 TS 18.47 -64.87 85 85 45
NA 09:00:00 TS 18.82 -65.11 85 45
NA 12:00:00 TS 19.20 -65.33 85 85 45
NA 15:00:00 TS 19.63 -65.52 85 45
NA 18:00:00 TS 20.07 -65.67 85 85 45
NA 21:00:00 TS 20.44 -65.81 85 47
NA 1894-10-15 00:00:00 TS 20.80 -65.93 85 85 50
NA 03:00:00 TS 21.19 -66.06 85 52
NA 06:00:00 TS 21.60 -66.20 85 85 55
NA 09:00:00 TS 22.01 -66.38 85 57
NA 12:00:00 TS 22.40 -66.53 85 85 60
NA 15:00:00 TS 22.73 -66.57 85 62
NA 18:00:00 TS 23.03 -66.57 85 85 65
NA 21:00:00 TS 23.36 -66.60 90 80
NA 1894-10-16 00:00:00 TS 23.70 -66.63 95 95 95
NA 03:00:00 TS 24.03 -66.63 100 100
NA 06:00:00 TS 24.37 -66.63 105 105 105
NA 09:00:00 TS 24.71 -66.67 110 110
NA 12:00:00 TS 25.10 -66.70 115 115 115
NA 15:00:00 TS 25.57 -66.71 115 115
NA 18:00:00 TS 26.10 -66.70 115 931 115 931 115 931
NA 21:00:00 TS 26.70 -66.67 115 115
NA 1894-10-17 00:00:00 TS 27.27 -66.60 115 115 115
NA 03:00:00 TS 27.71 -66.52 115 115
NA 06:00:00 TS 28.10 -66.37 115 115 115
NA 09:00:00 TS 28.51 -66.13 112 112
NA 12:00:00 TS 28.93 -65.77 110 110 110
NA 15:00:00 TS 29.39 -65.31 107 107
NA 18:00:00 TS 29.87 -64.73 105 105 105
NA 21:00:00 TS 30.36 -64.07 102 102
NA 1894-10-18 00:00:00 TS 30.87 -63.33 100 100 100
NA 03:00:00 TS 31.40 -62.57 97 90
NA 06:00:00 TS 31.93 -61.80 95 95 80
NA 09:00:00 TS 32.41 -61.07 92 72
NA 12:00:00 TS 32.87 -60.37 90 90 65
NA 15:00:00 TS 33.34 -59.64 87 55
NA 18:00:00 TS 33.80 -58.93 85 85 45
NA 21:00:00 TS 34.23 -58.24 85 42
NA 1894-10-19 00:00:00 MX 34.63 -57.60 85 85 40
NA 03:00:00 MX 35.02 -57.04 85 37
NA 06:00:00 MX 35.40 -56.75 85 85 35
NA 09:00:00 MX 35.74 -56.55 85 32
NA 12:00:00 MX 36.06 -56.50 85 85 30
NA 15:00:00 TS 36.35 -56.64 82
NA 18:00:00 TS 36.70 -56.30 80 80
NA 21:00:00 TS 37.02 -56.02 80
NA 1894-10-20 00:00:00 TS 37.30 -55.80 80 80
NA 03:00:00 TS 37.52 -55.63 77
NA 06:00:00 TS 37.70 -55.50 75 75
NA 09:00:00 TS 37.85 -55.36 72
NA 12:00:00 TS 38.00 -55.20 70 70
NA 15:00:00 TS 38.19 -55.01 70
NA 18:00:00 TS 38.40 -54.80 70 70

Source Information

Agency Information
USA hurdat2-1851-2018-051019.txt:Line=8109:UNNAMED
TOKYO
CMA
HKO
NEWDELHI
REUNION
BOM
NADI
WELLINGTON
DS824
TD9636
TD9635
NEUMANN
MLC

All available IBTrACS Data

SEASON BASIN SUBBASIN ISO_TIME_________ NATURE LAT LON WMO WIND WMO PRES WMO AGENCY DIST2LAND LANDFALL IFLAG USA AGENCY USA ATCF_ID USA LAT USA LON USA STATUS USA WIND USA PRES USA SSHS MLC LAT MLC LON MLC CLASS MLC WIND MLC PRES STORM SPEED STORM DIR
Year degrees north degrees east kts mb km km degrees north degrees east kts mb 1 degrees north degrees east kts mb kts degrees
1894 NA NA 1894-10-11 00:00:00 TS 11.10 -57.03 35 hurdat_atl 410 404 O____________O hurdat_atl AL061894 10.80 -57.70 TS 35 0 11.70 -55.70 TD 30 7 301
1894 NA NA 03:00:00 TS 11.28 -57.34 409 379 P____________P AL061894 11.03 -57.99 TS 40 0 11.79 -56.05 TD 37 7 303
1894 NA NA 06:00:00 TS 11.50 -57.67 45 hurdat_atl 371 346 O____________O hurdat_atl AL061894 11.30 -58.30 TS 45 0 11.90 -56.40 TS 45 8 307
1894 NA NA 09:00:00 TS 11.78 -58.01 349 328 P____________P AL061894 11.64 -58.64 TS 50 0 12.05 -56.76 TS 50 9 310
1894 NA NA 12:00:00 TS 12.07 -58.37 55 hurdat_atl 324 308 O____________O hurdat_atl AL061894 12.00 -59.00 TS 55 0 12.20 -57.10 TS 55 9 308
1894 NA NA 15:00:00 TS 12.30 -58.71 308 296 P____________P AL061894 12.31 -59.36 TS 60 0 12.30 -57.41 TS 55 8 306
1894 NA NA 18:00:00 TS 12.53 -59.03 65 hurdat_atl 296 289 O____________O hurdat_atl AL061894 12.60 -59.70 HU 65 1 12.40 -57.70 TS 55 8 308
1894 NA CS 21:00:00 TS 12.78 -59.34 299 292 P____________P AL061894 12.90 -60.01 HU 70 1 12.55 -58.00 TS 57 8 310
1894 NA CS 1894-10-12 00:00:00 TS 13.03 -59.63 75 hurdat_atl 299 298 O____________O hurdat_atl AL061894 13.20 -60.30 HU 75 1 12.70 -58.30 TS 60 8 310
1894 NA CS 03:00:00 TS 13.26 -59.93 314 310 P____________P AL061894 13.49 -60.60 HU 80 1 12.80 -58.60 TS 60 8 309
1894 NA CS 06:00:00 TS 13.50 -60.23 85 hurdat_atl 325 322 O____________O hurdat_atl AL061894 13.80 -60.90 HU 85 2 12.90 -58.90 TS 60 8 312
1894 NA CS 09:00:00 TS 13.79 -60.53 351 349 P____________P AL061894 14.16 -61.20 HU 85 2 13.05 -59.20 TS 62 8 314
1894 NA CS 12:00:00 TS 14.07 -60.83 85 hurdat_atl 381 380 O____________O hurdat_atl AL061894 14.50 -61.50 HU 85 2 13.20 -59.50 HU 65 7 308
1894 NA CS 15:00:00 TS 14.24 -61.13 391 391 P____________P AL061894 14.71 -61.79 HU 85 2 13.30 -59.80 HU 65 7 300
1894 NA CS 18:00:00 TS 14.40 -61.43 85 hurdat_atl 414 414 O____________O hurdat_atl AL061894 14.90 -62.10 HU 85 2 13.40 -60.10 HU 65 7 301
1894 NA CS 21:00:00 TS 14.61 -61.77 436 436 P____________P AL061894 15.14 -62.45 HU 85 2 13.54 -60.40 HU 65 8 304
1894 NA CS 1894-10-13 00:00:00 TS 14.83 -62.10 85 hurdat_atl 459 459 O____________O hurdat_atl AL061894 15.40 -62.80 HU 85 2 13.70 -60.70 HU 65 7 304
1894 NA CS 03:00:00 TS 15.02 -62.41 481 455 P____________P AL061894 15.63 -63.11 HU 85 2 13.80 -61.00 HU 65 7 307
1894 NA CS 06:00:00 TS 15.27 -62.70 85 hurdat_atl 447 401 O____________O hurdat_atl AL061894 15.90 -63.40 HU 85 2 14.00 -61.30 HU 65 9 319
1894 NA CS 09:00:00 TS 15.67 -63.00 393 339 P____________P AL061894 16.28 -63.71 HU 85 2 14.45 -61.59 HU 65 10 326
1894 NA CS 12:00:00 TS 16.13 -63.30 85 hurdat_atl 339 277 O____________O hurdat_atl AL061894 16.70 -64.00 HU 85 2 15.00 -61.90 HU 65 11 327
1894 NA CS 15:00:00 TS 16.58 -63.61 277 224 P____________P AL061894 17.11 -64.27 HU 85 2 15.50 -62.29 HU 62 10 326
1894 NA CS 18:00:00 TS 17.00 -63.90 85 hurdat_atl 224 182 O____________O hurdat_atl AL061894 17.50 -64.50 HU 85 2 16.00 -62.70 TS 60 10 327
1894 NA CS 21:00:00 TS 17.38 -64.16 173 138 P____________P AL061894 17.81 -64.72 HU 85 2 16.50 -63.05 TS 55 9 327
1894 NA CS 1894-10-14 00:00:00 TS 17.73 -64.40 85 hurdat_atl 138 106 O____________O hurdat_atl AL061894 18.10 -64.90 HU 85 2 17.00 -63.40 TS 50 9 328
1894 NA CS 03:00:00 TS 18.10 -64.64 106 73 P____________P AL061894 18.40 -65.06 HU 85 2 17.50 -63.79 TS 47 9 329
1894 NA CS 06:00:00 TS 18.47 -64.87 85 hurdat_atl 74 62 O____________O hurdat_atl AL061894 18.70 -65.20 HU 85 2 18.00 -64.20 TS 45 9 328
1894 NA CS 09:00:00 TS 18.82 -65.11 69 69 P____________P AL061894 18.98 -65.35 HU 85 2 18.52 -64.63 TS 45 9 329
1894 NA NA 12:00:00 TS 19.20 -65.33 85 hurdat_atl 94 91 O____________O hurdat_atl AL061894 19.30 -65.50 HU 85 2 19.00 -65.00 TS 45 9 335
1894 NA NA 15:00:00 TS 19.63 -65.52 134 134 P____________P AL061894 19.74 -65.66 HU 85 2 19.41 -65.23 TS 45 9 340
1894 NA NA 18:00:00 TS 20.07 -65.67 85 hurdat_atl 190 190 O____________O hurdat_atl AL061894 20.20 -65.80 HU 85 2 19.80 -65.40 TS 45 9 341
1894 NA NA 21:00:00 TS 20.44 -65.81 223 223 P____________P AL061894 20.56 -65.91 HU 85 2 20.20 -65.60 TS 47 8 341
1894 NA NA 1894-10-15 00:00:00 TS 20.80 -65.93 85 hurdat_atl 268 268 O____________O hurdat_atl AL061894 20.90 -66.00 HU 85 2 20.60 -65.80 TS 50 8 342
1894 NA NA 03:00:00 TS 21.19 -66.06 313 313 P____________P AL061894 21.29 -66.09 HU 85 2 21.00 -66.00 TS 52 8 343
1894 NA NA 06:00:00 TS 21.60 -66.20 85 hurdat_atl 357 357 O____________O hurdat_atl AL061894 21.70 -66.20 HU 85 2 21.40 -66.20 TS 55 9 340
1894 NA NA 09:00:00 TS 22.01 -66.38 402 402 P____________P AL061894 22.12 -66.36 HU 85 2 21.81 -66.42 TS 57 9 339
1894 NA NA 12:00:00 TS 22.40 -66.53 85 hurdat_atl 447 447 O____________O hurdat_atl AL061894 22.50 -66.50 HU 85 2 22.20 -66.60 TS 60 7 346
1894 NA NA 15:00:00 TS 22.73 -66.57 472 472 P____________P AL061894 22.81 -66.52 HU 85 2 22.55 -66.68 TS 62 6 357
1894 NA NA 18:00:00 TS 23.03 -66.57 85 hurdat_atl 499 499 O____________O hurdat_atl AL061894 23.10 -66.50 HU 85 2 22.90 -66.70 HU 65 6 356
1894 NA NA 21:00:00 TS 23.36 -66.60 536 536 P____________P AL061894 23.40 -66.55 HU 90 2 23.29 -66.71 HU 80 7 355
1894 NA NA 1894-10-16 00:00:00 TS 23.70 -66.63 95 hurdat_atl 565 565 O____________O hurdat_atl AL061894 23.70 -66.60 HU 95 2 23.70 -66.70 HU 95 7 356
1894 NA NA 03:00:00 TS 24.03 -66.63 594 594 P____________P AL061894 23.99 -66.60 HU 100 3 24.10 -66.70 HU 100 7 1
1894 NA NA 06:00:00 TS 24.37 -66.63 105 hurdat_atl 634 634 O____________O hurdat_atl AL061894 24.30 -66.60 HU 105 3 24.50 -66.70 MH 105 7 357
1894 NA NA 09:00:00 TS 24.71 -66.67 660 660 P____________P AL061894 24.61 -66.65 HU 110 3 24.90 -66.70 MH 110 7 355
1894 NA NA 12:00:00 TS 25.10 -66.70 115 hurdat_atl 701 701 O____________O hurdat_atl AL061894 25.00 -66.70 HU 115 4 25.30 -66.70 MH 115 9 357
1894 NA NA 15:00:00 TS 25.57 -66.71 751 751 P____________P AL061894 25.51 -66.71 HU 115 4 25.69 -66.71 MH 115 10 1
1894 NA NA 18:00:00 TS 26.10 -66.70 115 931 hurdat_atl 801 801 O____________O hurdat_atl AL061894 26.10 -66.70 HU 115 931 4 26.10 -66.70 MH 115 931 11 2
1894 NA NA 21:00:00 TS 26.70 -66.67 862 862 P____________P AL061894 26.77 -66.67 HU 115 4 26.54 -66.66 MH 115 12 5
1894 NA NA 1894-10-17 00:00:00 TS 27.27 -66.60 115 hurdat_atl 927 927 O____________O hurdat_atl AL061894 27.40 -66.60 HU 115 4 27.00 -66.60 MH 115 10 7
1894 NA NA 03:00:00 TS 27.71 -66.52 972 972 P____________P AL061894 27.84 -66.49 HU 115 4 27.45 -66.59 MH 115 9 14
1894 NA NA 06:00:00 TS 28.10 -66.37 115 hurdat_atl 1017 1017 O____________O hurdat_atl AL061894 28.20 -66.30 HU 115 4 27.90 -66.50 MH 115 9 23
1894 NA NA 09:00:00 TS 28.51 -66.13 1070 1070 P____________P AL061894 28.58 -66.05 HU 112 3 28.36 -66.27 MH 112 10 32
1894 NA NA 12:00:00 TS 28.93 -65.77 110 hurdat_atl 1122 1122 O____________O hurdat_atl AL061894 29.00 -65.70 HU 110 3 28.80 -65.90 MH 110 11 39
1894 NA NA 15:00:00 TS 29.39 -65.31 1190 1190 P____________P AL061894 29.48 -65.27 HU 107 3 29.21 -65.39 MH 107 13 44
1894 NA NA 18:00:00 TS 29.87 -64.73 105 hurdat_atl 1201 1201 O____________O hurdat_atl AL061894 30.00 -64.70 HU 105 3 29.60 -64.80 MH 105 14 48
1894 NA NA 21:00:00 TS 30.36 -64.07 1217 1217 P____________P AL061894 30.54 -63.99 HU 102 3 30.00 -64.24 MH 102 16 50
1894 NA NA 1894-10-18 00:00:00 TS 30.87 -63.33 100 hurdat_atl 1254 1254 O____________O hurdat_atl AL061894 31.10 -63.20 HU 100 3 30.40 -63.60 MH 100 17 51
1894 NA NA 03:00:00 TS 31.40 -62.57 1288 1288 P____________P AL061894 31.71 -62.44 HU 97 3 30.80 -62.82 MH 90 17 51
1894 NA NA 06:00:00 TS 31.93 -61.80 95 hurdat_atl 1310 1286 O____________O hurdat_atl AL061894 32.30 -61.70 HU 95 2 31.20 -62.00 HU 80 16 52
1894 NA NA 09:00:00 TS 32.41 -61.07 1288 1262 P____________P AL061894 32.83 -60.96 HU 92 2 31.57 -61.30 HU 72 15 52
1894 NA NA 12:00:00 TS 32.87 -60.37 90 hurdat_atl 1254 1231 O____________O hurdat_atl AL061894 33.30 -60.30 HU 90 2 32.00 -60.50 HU 65 15 52
1894 NA NA 15:00:00 TS 33.34 -59.64 1238 1209 P____________P AL061894 33.72 -59.76 HU 87 2 32.58 -59.40 HU 55 15 52
1894 NA NA 18:00:00 TS 33.80 -58.93 85 hurdat_atl 1212 1193 O____________O hurdat_atl AL061894 34.10 -59.30 HU 85 2 33.20 -58.20 TS 45 15 53
1894 NA NA 21:00:00 TS 34.23 -58.24 1202 1186 P____________P AL061894 34.46 -58.83 HU 85 2 33.76 -57.06 TS 42 14 53
1894 NA NA 1894-10-19 00:00:00 MX 34.63 -57.60 85 hurdat_atl 1190 1177 O____________O hurdat_atl AL061894 34.80 -58.40 HU 85 2 34.30 -56.00 EX 40 13 51
1894 NA NA 03:00:00 MX 35.02 -57.04 1183 1149 P____________P AL061894 35.11 -58.03 HU 85 2 34.85 -55.06 EX 37 10 42
1894 NA NA 06:00:00 MX 35.40 -56.75 85 hurdat_atl 1151 1122 O____________O hurdat_atl AL061894 35.40 -57.70 HU 85 2 35.40 -54.20 EX 35 8 29
1894 NA NA 09:00:00 MX 35.74 -56.55 1122 1093 P____________P AL061894 35.69 -57.35 HU 85 2 35.95 -53.35 EX 32 7 17
1894 NA NA 12:00:00 MX 36.06 -56.50 85 hurdat_atl 1083 1059 O____________O hurdat_atl AL061894 36.00 -57.00 HU 85 2 36.50 -52.50 EX 30 6 354
1894 NA NA 15:00:00 TS 36.35 -56.64 1048 1027 P_____________ AL061894 36.35 -56.64 HU 82 1 EX 7 14
1894 NA NA 18:00:00 TS 36.70 -56.30 80 hurdat_atl 1027 1002 O_____________ hurdat_atl AL061894 36.70 -56.30 HU 80 1 8 36
1894 NA NA 21:00:00 TS 37.02 -56.02 1006 983 P_____________ AL061894 37.02 -56.02 HU 80 1 7 34
1894 NA NA 1894-10-20 00:00:00 TS 37.30 -55.80 80 hurdat_atl 983 966 O_____________ hurdat_atl AL061894 37.30 -55.80 HU 80 1 6 32
1894 NA NA 03:00:00 TS 37.52 -55.63 970 954 P_____________ AL061894 37.52 -55.63 HU 77 1 5 31
1894 NA NA 06:00:00 TS 37.70 -55.50 75 hurdat_atl 954 944 O_____________ hurdat_atl AL061894 37.70 -55.50 HU 75 1 4 34
1894 NA NA 09:00:00 TS 37.85 -55.36 948 937 P_____________ AL061894 37.85 -55.36 HU 72 1 4 38
1894 NA NA 12:00:00 TS 38.00 -55.20 70 hurdat_atl 937 927 O_____________ hurdat_atl AL061894 38.00 -55.20 HU 70 1 4 39
1894 NA NA 15:00:00 TS 38.19 -55.01 927 917 P_____________ AL061894 38.19 -55.01 HU 70 1 5 38
1894 NA NA 18:00:00 TS 38.40 -54.80 70 hurdat_atl 917 O_____________ hurdat_atl AL061894 38.40 -54.80 HU 70 1 5 38